Time;durP1;ratioP1;P1;durP2;ratioP2;P2;SDS_P1;SDS_P2;PMS_P1;PMS_P2;Temp;Humidity;BMP_temperature;BMP_pressure;BME280_temperature;BME280_humidity;BME280_pressure;Samples;Min_cycle;Max_cycle;Signal;HPM_P1;HPM_P2
2022/06/23 00:01:44;;;;;;;9.18;7.00;;;20.30;99.90;;;;;;4989990;28;20219;-67
2022/06/23 00:04:15;;;;;;;10.38;6.70;;;20.30;99.90;;;;;;4982949;28;20184;-67
2022/06/23 00:06:43;;;;;;;7.55;6.57;;;20.30;99.90;;;;;;4978240;28;20528;-67
2022/06/23 00:09:36;;;;;;;6.53;5.93;;;20.40;99.90;;;;;;4991739;28;20232;-67
2022/06/23 00:12:17;;;;;;;10.20;6.10;;;20.50;99.90;;;;;;4981390;28;20194;-67
2022/06/23 00:14:47;;;;;;;9.40;6.43;;;20.50;99.90;;;;;;4980001;28;20202;-67
2022/06/23 00:17:16;;;;;;;7.38;6.30;;;20.50;99.90;;;;;;4984268;28;20183;-68
2022/06/23 00:19:42;;;;;;;7.90;6.65;;;20.40;99.90;;;;;;4988314;28;20230;-67
2022/06/23 00:22:10;;;;;;;7.57;6.30;;;20.40;99.90;;;;;;4992426;28;20176;-67
2022/06/23 00:24:37;;;;;;;6.25;5.55;;;20.40;99.90;;;;;;4992040;28;20517;-67
2022/06/23 00:27:04;;;;;;;7.75;7.03;;;20.40;99.90;;;;;;4983368;28;20275;-67
2022/06/23 00:29:29;;;;;;;7.10;6.25;;;20.30;99.90;;;;;;4989939;28;20212;-67
2022/06/23 00:31:58;;;;;;;10.00;6.93;;;20.20;99.90;;;;;;4992559;28;20238;-67
2022/06/23 00:34:27;;;;;;;8.70;6.63;;;20.20;99.90;;;;;;4991467;28;20191;-67
2022/06/23 00:37:03;;;;;;;8.77;6.70;;;20.10;99.90;;;;;;4991461;28;20214;-67
2022/06/23 00:39:31;;;;;;;15.13;7.10;;;20.20;99.90;;;;;;4987240;28;20688;-66
2022/06/23 00:41:57;;;;;;;6.43;5.53;;;20.30;99.90;;;;;;4986710;28;20208;-67
2022/06/23 00:44:39;;;;;;;11.88;5.95;;;20.30;99.90;;;;;;4981399;28;20183;-67
2022/06/23 00:47:13;;;;;;;7.45;5.93;;;20.20;99.90;;;;;;4988724;28;20194;-67
2022/06/23 00:49:52;;;;;;;7.50;5.95;;;20.20;99.90;;;;;;4984355;28;20615;-67
2022/06/23 00:52:24;;;;;;;10.20;6.07;;;20.40;99.90;;;;;;4992339;28;20254;-66
2022/06/23 00:54:53;;;;;;;9.90;6.45;;;20.00;99.90;;;;;;4990512;28;20270;-66
2022/06/23 00:57:36;;;;;;;8.13;7.10;;;19.90;99.90;;;;;;4982655;28;20180;-67
2022/06/23 01:00:28;;;;;;;8.70;6.75;;;19.90;99.90;;;;;;4986211;28;20219;-67
2022/06/23 01:03:21;;;;;;;7.60;5.63;;;19.80;99.90;;;;;;4983731;28;20181;-67
2022/06/23 01:06:12;;;;;;;6.30;5.70;;;19.80;99.90;;;;;;4978666;28;20188;-67
2022/06/23 01:09:04;;;;;;;9.35;6.97;;;19.90;99.90;;;;;;4979419;28;20191;-68
2022/06/23 01:11:59;;;;;;;9.10;6.70;;;20.20;99.90;;;;;;4981855;28;20621;-66
2022/06/23 01:14:36;;;;;;;7.65;5.65;;;19.60;99.90;;;;;;4990738;28;20197;-66
2022/06/23 01:17:15;;;;;;;10.48;6.05;;;19.50;99.90;;;;;;4984834;28;20179;-67
2022/06/23 01:19:56;;;;;;;9.07;5.80;;;19.50;99.90;;;;;;4988660;28;20266;-67
2022/06/23 01:22:45;;;;;;;12.07;6.50;;;19.30;99.90;;;;;;4991095;28;20179;-67
2022/06/23 01:25:30;;;;;;;9.30;5.45;;;19.30;99.90;;;;;;4973817;28;20183;-67
2022/06/23 01:27:58;;;;;;;8.95;5.68;;;19.20;99.90;;;;;;4987807;28;20186;-67
2022/06/23 01:30:29;;;;;;;10.48;6.65;;;19.30;99.90;;;;;;4981737;28;20211;-67
2022/06/23 01:33:06;;;;;;;9.10;5.35;;;19.20;99.90;;;;;;4982117;28;20187;-67
2022/06/23 01:35:47;;;;;;;9.75;6.07;;;19.20;99.90;;;;;;4986261;28;20179;-68
2022/06/23 01:38:27;;;;;;;9.55;6.45;;;19.10;99.90;;;;;;4989415;28;20187;-67
2022/06/23 01:41:10;;;;;;;6.97;5.82;;;19.00;99.90;;;;;;4987622;28;20312;-68
2022/06/23 01:43:52;;;;;;;7.65;5.53;;;19.00;99.90;;;;;;4986715;28;20195;-67
2022/06/23 01:46:45;;;;;;;10.77;5.07;;;18.90;99.90;;;;;;4981137;28;20196;-67
2022/06/23 01:49:13;;;;;;;8.93;5.75;;;18.80;99.90;;;;;;4980977;28;20731;-67
2022/06/23 01:51:51;;;;;;;8.00;6.15;;;18.90;99.90;;;;;;4983439;28;20212;-67
2022/06/23 01:54:19;;;;;;;12.68;5.72;;;19.00;99.90;;;;;;4980476;28;20781;-67
2022/06/23 01:56:58;;;;;;;7.38;6.38;;;18.90;99.90;;;;;;4987882;28;20184;-68
2022/06/23 01:59:26;;;;;;;10.48;5.50;;;18.90;99.90;;;;;;4979079;28;20195;-67
2022/06/23 02:01:52;;;;;;;8.45;5.85;;;18.60;99.90;;;;;;4989761;28;20215;-67
2022/06/23 02:04:41;;;;;;;13.00;6.10;;;18.80;99.90;;;;;;4984524;28;20190;-67
2022/06/23 02:07:39;;;;;;;8.95;5.95;;;18.80;99.90;;;;;;4976729;28;20194;-68
2022/06/23 02:10:22;;;;;;;7.65;5.43;;;18.70;99.90;;;;;;4991141;28;20234;-68
2022/06/23 02:13:14;;;;;;;8.20;5.53;;;18.80;99.90;;;;;;4984902;28;20187;-67
2022/06/23 02:16:01;;;;;;;7.38;5.25;;;18.80;99.90;;;;;;4974477;28;20242;-67
2022/06/23 02:18:58;;;;;;;7.35;5.45;;;18.80;99.90;;;;;;4975304;28;20326;-66
2022/06/23 02:21:39;;;;;;;8.48;5.75;;;18.70;99.90;;;;;;4987203;28;20788;-68
2022/06/23 02:24:17;;;;;;;10.43;5.90;;;18.70;99.90;;;;;;4988439;28;20327;-67
2022/06/23 02:27:14;;;;;;;8.55;6.28;;;18.70;99.90;;;;;;4980315;28;20176;-67
2022/06/23 02:29:46;;;;;;;10.70;6.43;;;18.60;99.90;;;;;;4989714;28;20180;-67
2022/06/23 02:32:24;;;;;;;7.90;5.53;;;18.60;99.90;;;;;;4983805;28;20183;-67
2022/06/23 02:35:08;;;;;;;9.00;5.93;;;18.50;99.90;;;;;;4978232;28;20207;-67
2022/06/23 02:37:46;;;;;;;9.48;6.18;;;18.50;99.90;;;;;;4987772;28;20186;-67
2022/06/23 02:40:22;;;;;;;9.50;5.47;;;18.50;99.90;;;;;;4985014;28;20211;-67
2022/06/23 02:42:54;;;;;;;7.32;5.88;;;18.50;99.90;;;;;;4982041;28;20222;-67
2022/06/23 02:45:34;;;;;;;10.77;6.82;;;18.50;99.90;;;;;;4990322;28;20198;-67
2022/06/23 02:48:05;;;;;;;11.18;6.40;;;18.50;99.90;;;;;;4983763;28;20692;-67
2022/06/23 02:50:40;;;;;;;8.40;5.30;;;18.50;99.90;;;;;;4987486;28;20745;-67
2022/06/23 02:53:17;;;;;;;11.80;6.22;;;18.50;99.90;;;;;;4983928;28;20301;-67
2022/06/23 02:55:51;;;;;;;9.93;5.78;;;18.40;99.90;;;;;;4979103;28;20644;-67
2022/06/23 02:58:21;;;;;;;7.25;5.43;;;18.40;99.90;;;;;;4982962;28;20275;-67
2022/06/23 03:01:03;;;;;;;9.10;5.80;;;18.40;99.90;;;;;;4982674;28;20215;-67
2022/06/23 03:03:51;;;;;;;8.23;5.95;;;18.40;99.90;;;;;;4984416;28;20187;-67
2022/06/23 03:06:22;;;;;;;5.90;5.10;;;18.30;99.90;;;;;;4992788;28;20187;-67
2022/06/23 03:08:58;;;;;;;6.72;5.68;;;18.30;99.90;;;;;;4994139;28;20184;-67
2022/06/23 03:11:51;;;;;;;6.53;4.72;;;18.20;99.90;;;;;;4994340;28;20216;-66
2022/06/23 03:14:47;;;;;;;9.25;6.03;;;18.20;99.90;;;;;;4981687;28;20196;-67
2022/06/23 03:17:12;;;;;;;9.88;6.28;;;18.20;99.90;;;;;;4989157;28;20591;-67
2022/06/23 03:19:47;;;;;;;9.23;5.93;;;18.40;99.90;;;;;;4988016;28;20180;-67
2022/06/23 03:22:34;;;;;;;12.18;7.05;;;18.20;99.90;;;;;;4988632;28;20234;-67
2022/06/23 03:25:20;;;;;;;8.50;6.13;;;18.30;99.90;;;;;;4993740;28;20179;-67
2022/06/23 03:28:01;;;;;;;9.65;6.30;;;18.20;99.90;;;;;;4983810;28;20190;-67
2022/06/23 03:30:39;;;;;;;8.90;5.68;;;18.10;99.90;;;;;;4992521;28;20262;-67
2022/06/23 03:33:25;;;;;;;9.82;6.20;;;18.40;99.90;;;;;;4974946;28;20517;-67
2022/06/23 03:36:03;;;;;;;9.57;6.15;;;18.30;99.90;;;;;;4990702;28;20661;-67
2022/06/23 03:41:59;;;;;;;5.70;5.10;;;18.30;99.90;;;;;;4989467;28;20290;-67
2022/06/23 03:44:55;;;;;;;7.88;5.95;;;18.30;99.90;;;;;;4982693;28;20179;-67
2022/06/23 03:47:53;;;;;;;9.15;6.20;;;18.30;99.90;;;;;;4987746;28;20581;-67
2022/06/23 03:50:37;;;;;;;7.63;5.53;;;18.30;99.90;;;;;;4980860;28;20207;-67
2022/06/23 03:53:58;;;;;;;10.25;5.85;;;18.20;99.90;;;;;;4986474;28;20286;-67
2022/06/23 03:56:28;;;;;;;11.27;6.63;;;18.40;99.90;;;;;;4931858;29;20201;-67
2022/06/23 03:59:20;;;;;;;9.48;6.20;;;18.40;99.90;;;;;;4980517;28;20196;-67
2022/06/23 04:01:56;;;;;;;6.95;6.20;;;18.40;99.90;;;;;;4956875;28;20249;-67
2022/06/23 04:04:25;;;;;;;12.75;6.60;;;18.50;99.90;;;;;;4987285;28;20183;-67
2022/06/23 04:06:52;;;;;;;10.88;6.70;;;18.40;99.90;;;;;;4983324;28;20194;-67
2022/06/23 04:09:36;;;;;;;9.35;6.53;;;18.50;99.90;;;;;;4988155;28;20653;-66
2022/06/23 04:12:11;;;;;;;9.35;6.53;;;18.50;99.90;;;;;;4989109;28;20184;-67
2022/06/23 04:15:05;;;;;;;12.57;6.55;;;18.50;99.90;;;;;;4987222;28;20677;-66
2022/06/23 04:17:55;;;;;;;10.73;6.30;;;18.60;99.90;;;;;;4982729;28;20327;-67
2022/06/23 04:20:32;;;;;;;6.82;6.13;;;18.60;99.90;;;;;;4985976;28;20579;-67
2022/06/23 04:23:16;;;;;;;10.35;5.45;;;18.60;99.90;;;;;;4986096;28;20637;-67
2022/06/23 04:25:50;;;;;;;8.43;5.72;;;18.60;99.90;;;;;;4986981;28;21623;-67
2022/06/23 04:28:19;;;;;;;8.02;5.72;;;18.70;99.90;;;;;;4987501;28;20237;-67
2022/06/23 04:30:46;;;;;;;8.50;6.18;;;18.70;99.90;;;;;;4991320;28;20789;-67
2022/06/23 04:33:20;;;;;;;10.80;6.30;;;18.80;99.90;;;;;;4983607;28;20199;-67
2022/06/23 04:35:49;;;;;;;12.85;6.22;;;18.80;99.90;;;;;;4989760;28;20202;-67
2022/06/23 04:38:21;;;;;;;7.13;5.72;;;18.90;99.90;;;;;;4985689;28;20493;-67
2022/06/23 04:41:06;;;;;;;8.80;6.65;;;18.90;99.90;;;;;;4984282;28;20302;-67
2022/06/23 04:43:42;;;;;;;12.50;6.72;;;19.00;99.90;;;;;;4990377;28;20238;-67
2022/06/23 04:46:14;;;;;;;11.57;8.10;;;18.90;99.90;;;;;;4987799;28;20191;-67
2022/06/23 04:48:39;;;;;;;16.17;6.88;;;18.80;99.90;;;;;;4986568;28;20187;-67
2022/06/23 04:51:28;;;;;;;6.70;6.00;;;18.90;99.90;;;;;;4991020;28;20212;-67
2022/06/23 04:54:05;;;;;;;8.85;6.07;;;18.90;99.90;;;;;;4989260;28;20242;-67
2022/06/23 04:56:48;;;;;;;12.07;5.78;;;18.90;99.90;;;;;;4988192;28;20198;-67
2022/06/23 04:59:49;;;;;;;7.68;5.95;;;19.00;99.90;;;;;;4987668;28;20572;-67
2022/06/23 05:02:23;;;;;;;9.30;6.35;;;18.90;99.90;;;;;;4977289;28;20665;-68
2022/06/23 05:05:03;;;;;;;9.90;6.10;;;19.00;99.90;;;;;;4980421;28;20576;-67
2022/06/23 05:07:53;;;;;;;10.75;6.20;;;19.00;99.90;;;;;;4990168;28;20211;-68
2022/06/23 05:10:31;;;;;;;6.30;5.43;;;19.10;99.90;;;;;;4984007;28;20204;-66
2022/06/23 05:13:03;;;;;;;7.53;5.90;;;19.20;99.90;;;;;;4987503;28;20191;-65
2022/06/23 05:15:48;;;;;;;8.65;7.15;;;19.40;99.90;;;;;;4987320;28;20186;-65
2022/06/23 05:18:20;;;;;;;10.50;5.75;;;19.40;99.90;;;;;;4979410;28;20211;-66
2022/06/23 05:21:18;;;;;;;9.95;6.57;;;19.60;99.90;;;;;;4988393;28;20252;-66
2022/06/23 05:23:54;;;;;;;7.93;5.65;;;19.70;99.90;;;;;;4985134;28;20673;-71
2022/06/23 05:26:27;;;;;;;12.05;6.15;;;19.80;99.90;;;;;;4989173;28;20245;-77
2022/06/23 05:28:59;;;;;;;9.32;6.57;;;19.90;99.90;;;;;;4986472;28;20235;-70
2022/06/23 05:31:31;;;;;;;9.50;5.50;;;20.00;99.90;;;;;;4991034;28;20207;-74
2022/06/23 05:34:04;;;;;;;8.48;5.95;;;20.10;99.90;;;;;;4988587;28;20580;-71
2022/06/23 05:36:41;;;;;;;9.10;6.95;;;20.20;99.90;;;;;;4991052;28;20205;-68
2022/06/23 05:39:29;;;;;;;7.18;6.00;;;20.30;99.90;;;;;;4987649;28;20602;-73
2022/06/23 05:41:58;;;;;;;8.70;6.85;;;20.40;99.90;;;;;;4988722;28;20204;-72
2022/06/23 05:44:29;;;;;;;12.05;6.25;;;20.60;99.90;;;;;;4985874;28;20183;-71
2022/06/23 05:46:59;;;;;;;7.95;5.85;;;20.70;99.90;;;;;;4978911;28;20175;-68
2022/06/23 05:49:30;;;;;;;7.22;6.03;;;20.90;99.90;;;;;;4984733;28;20190;-70
2022/06/23 05:52:25;;;;;;;8.50;6.45;;;21.10;99.90;;;;;;4990641;28;20238;-69
2022/06/23 05:54:58;;;;;;;8.02;6.07;;;21.10;99.90;;;;;;4988545;28;20645;-69
2022/06/23 05:57:44;;;;;;;12.48;7.07;;;21.30;99.90;;;;;;4983512;28;20194;-73
2022/06/23 06:00:15;;;;;;;8.13;5.70;;;21.50;99.90;;;;;;4989356;28;20307;-71
2022/06/23 06:03:01;;;;;;;12.77;6.03;;;21.80;99.90;;;;;;4979977;28;20184;-72
2022/06/23 06:05:38;;;;;;;8.45;4.75;;;22.10;99.90;;;;;;4986570;28;20199;-75
2022/06/23 06:09:35;;;;;;;9.80;5.68;;;22.30;99.90;;;;;;4986689;28;20195;-73
2022/06/23 06:11:28;;;;;;;8.50;5.53;;;22.40;99.90;;;;;;4977087;28;20226;-67
2022/06/23 06:13:54;;;;;;;13.90;7.47;;;22.60;99.90;;;;;;4988498;28;20183;-67
2022/06/23 06:16:19;;;;;;;7.37;5.60;;;22.70;99.90;;;;;;4981071;28;20191;-68
2022/06/23 06:18:46;;;;;;;6.97;5.47;;;22.80;99.90;;;;;;4983762;28;20270;-77
2022/06/23 06:21:16;;;;;;;7.18;6.03;;;22.90;99.90;;;;;;4999922;28;20202;-75
2022/06/23 06:23:51;;;;;;;9.00;5.00;;;23.00;99.90;;;;;;4991226;28;20182;-74
2022/06/23 06:26:20;;;;;;;10.17;5.37;;;23.10;99.90;;;;;;4978444;28;20521;-72
2022/06/23 06:28:46;;;;;;;10.63;5.10;;;23.20;99.90;;;;;;4983754;28;20960;-70
2022/06/23 06:31:15;;;;;;;5.77;5.00;;;23.30;99.90;;;;;;4990588;28;20458;-71
2022/06/23 06:34:02;;;;;;;8.83;5.10;;;23.30;99.90;;;;;;4986774;28;20454;-71
2022/06/23 06:36:31;;;;;;;9.37;5.20;;;23.40;99.90;;;;;;4990162;28;20443;-70
2022/06/23 06:39:24;;;;;;;7.90;5.17;;;23.40;99.90;;;;;;4991768;28;20533;-71
2022/06/23 06:42:14;;;;;;;12.60;5.50;;;23.50;99.90;;;;;;4983853;28;20536;-70
2022/06/23 06:44:48;;;;;;;6.77;4.63;;;23.50;99.90;;;;;;4994190;28;20498;-70
2022/06/23 06:47:21;;;;;;;8.20;4.73;;;23.70;99.90;;;;;;4989130;28;20442;-72
2022/06/23 06:49:48;;;;;;;6.90;4.60;;;23.80;99.90;;;;;;4990721;28;20453;-70
2022/06/23 06:52:14;;;;;;;9.53;5.33;;;23.80;99.90;;;;;;4993954;28;20430;-70
2022/06/23 06:54:45;;;;;;;10.00;4.73;;;23.90;99.90;;;;;;4977806;28;20450;-71
2022/06/23 06:57:36;;;;;;;7.47;5.03;;;24.00;99.90;;;;;;4988875;28;20446;-70
2022/06/23 07:00:05;;;;;;;8.90;4.50;;;24.20;99.90;;;;;;4986787;28;20457;-71
2022/06/23 07:02:42;;;;;;;7.50;4.43;;;24.40;99.90;;;;;;4987973;28;20447;-70
2022/06/23 07:05:38;;;;;;;9.23;5.03;;;24.90;99.90;;;;;;4988823;28;20556;-73
2022/06/23 07:08:17;;;;;;;9.17;4.40;;;25.40;99.90;;;;;;4991360;28;20434;-74
2022/06/23 07:11:00;;;;;;;6.20;4.10;;;26.90;99.90;;;;;;4984083;28;20462;-74
2022/06/23 07:13:44;;;;;;;8.10;3.67;;;29.80;95.20;;;;;;4986368;28;20434;-73
2022/06/23 07:16:19;;;;;;;7.13;3.80;;;32.10;87.20;;;;;;4986014;28;20546;-74
2022/06/23 07:19:01;;;;;;;5.30;4.03;;;32.80;84.00;;;;;;4986886;28;20492;-75
2022/06/23 07:21:47;;;;;;;5.20;4.20;;;32.60;80.80;;;;;;4992227;28;20512;-69
2022/06/23 07:24:27;;;;;;;7.60;4.30;;;31.60;80.90;;;;;;4992072;28;20910;-74
2022/06/23 07:27:05;;;;;;;6.30;3.97;;;30.20;84.80;;;;;;4977287;28;20458;-75
2022/06/23 07:30:10;;;;;;;9.80;4.27;;;29.60;88.60;;;;;;4988686;28;20440;-74
2022/06/23 07:32:52;;;;;;;3.83;3.43;;;30.10;88.60;;;;;;4975043;28;20443;-72
2022/06/23 07:35:39;;;;;;;6.43;3.93;;;31.10;84.80;;;;;;4982980;28;20543;-65
2022/06/23 07:38:12;;;;;;;5.20;3.67;;;31.70;80.60;;;;;;4990089;28;20528;-71
2022/06/23 07:40:47;;;;;;;6.63;3.67;;;33.30;76.30;;;;;;4988813;28;20481;-72
2022/06/23 07:43:21;;;;;;;6.33;3.43;;;33.40;74.80;;;;;;4992839;28;20500;-71
2022/06/23 07:45:57;;;;;;;9.10;4.40;;;34.30;72.60;;;;;;4984457;28;20541;-72
2022/06/23 07:48:24;;;;;;;6.30;3.47;;;33.80;70.80;;;;;;4983099;28;20446;-72
2022/06/23 07:50:49;;;;;;;6.07;3.30;;;33.80;70.50;;;;;;4990999;28;20521;-72
2022/06/23 07:53:24;;;;;;;6.43;3.70;;;34.80;68.20;;;;;;4985846;28;20473;-72
2022/06/23 07:55:50;;;;;;;6.83;4.70;;;34.30;68.20;;;;;;4990059;28;20206;-72
2022/06/23 07:58:23;;;;;;;4.70;3.50;;;33.90;68.30;;;;;;4989988;28;20434;-70
2022/06/23 08:01:12;;;;;;;7.73;4.00;;;33.00;71.90;;;;;;4990141;28;20476;-70
2022/06/23 08:03:46;;;;;;;6.90;3.37;;;34.00;69.70;;;;;;4979448;28;20442;-72
2022/06/23 08:06:15;;;;;;;7.00;4.17;;;35.60;64.20;;;;;;4978384;28;20498;-73
2022/06/23 08:08:44;;;;;;;6.97;3.60;;;37.70;59.90;;;;;;4989688;28;20439;-73
2022/06/23 08:14:10;;;;;;;5.60;3.60;;;38.80;54.50;;;;;;4986531;28;20869;-72
2022/06/23 08:16:52;;;;;;;7.07;2.70;;;39.90;52.40;;;;;;4984004;28;20438;-71
2022/06/23 08:19:29;;;;;;;8.70;3.90;;;40.80;50.10;;;;;;4979875;28;20530;-72
2022/06/23 08:22:42;;;;;;;7.17;3.73;;;41.60;48.60;;;;;;4984153;28;20482;-70
2022/06/23 08:25:09;;;;;;;7.30;3.73;;;42.80;46.30;;;;;;4979448;28;20449;-72
2022/06/23 08:27:37;;;;;;;8.03;3.17;;;42.30;44.60;;;;;;4989119;28;21043;-75
2022/06/23 08:30:12;;;;;;;5.37;2.93;;;42.00;44.20;;;;;;4992558;28;20497;-71
2022/06/23 08:32:41;;;;;;;5.80;3.27;;;43.80;42.20;;;;;;4987875;28;20521;-76
2022/06/23 08:35:15;;;;;;;4.80;3.20;;;42.60;41.40;;;;;;4990403;28;20439;-72
2022/06/23 08:37:52;;;;;;;8.13;3.70;;;41.40;43.00;;;;;;4985987;28;20476;-71
2022/06/23 08:41:01;;;;;;;6.37;3.17;;;41.20;42.80;;;;;;4989081;28;20474;-74
2022/06/23 08:43:40;;;;;;;5.00;3.27;;;41.20;43.80;;;;;;4971834;28;20446;-78
2022/06/23 08:46:31;;;;;;;6.10;3.03;;;41.10;43.00;;;;;;4991100;28;20807;-74
2022/06/23 08:48:59;;;;;;;7.73;3.47;;;40.00;44.50;;;;;;4983999;28;20447;-74
2022/06/23 08:51:40;;;;;;;5.80;3.27;;;39.80;45.10;;;;;;4990349;28;20451;-76
2022/06/23 08:54:15;;;;;;;4.93;3.50;;;40.60;45.30;;;;;;4989073;28;20758;-75
2022/06/23 08:57:00;;;;;;;4.93;3.20;;;40.70;44.30;;;;;;4989853;28;20444;-74
2022/06/23 08:59:50;;;;;;;6.37;3.73;;;40.60;44.70;;;;;;4990741;28;20446;-75
2022/06/23 09:02:54;;;;;;;4.37;3.77;;;40.90;44.70;;;;;;4981346;28;20482;-76
2022/06/23 09:05:44;;;;;;;9.77;3.97;;;41.30;44.30;;;;;;4923134;29;20462;-74
2022/06/23 09:08:21;;;;;;;5.57;3.70;;;41.00;44.30;;;;;;4921994;29;20528;-78
2022/06/23 09:11:25;;;;;;;6.53;4.13;;;40.30;44.50;;;;;;4963559;28;20474;-74
2022/06/23 09:14:11;;;;;;;7.20;3.37;;;41.10;44.10;;;;;;4983254;28;20438;-77
2022/06/23 09:16:49;;;;;;;5.90;3.77;;;41.20;42.90;;;;;;4989904;28;20432;-78
2022/06/23 09:19:14;;;;;;;6.00;3.73;;;40.40;43.40;;;;;;4979572;28;20442;-77
2022/06/23 09:22:06;;;;;;;7.97;4.40;;;40.80;43.70;;;;;;4983127;28;20984;-76
2022/06/23 09:24:55;;;;;;;5.60;3.20;;;37.00;45.70;;;;;;4937344;28;20275;-76
2022/06/23 09:27:37;;;;;;;5.17;3.77;;;37.30;48.80;;;;;;4984718;28;20446;-73
2022/06/23 09:30:36;;;;;;;7.33;5.33;;;36.70;48.40;;;;;;4986393;28;20458;-70
2022/06/23 09:33:30;;;;;;;7.20;4.00;;;36.90;49.20;;;;;;4984233;28;20435;-72
2022/06/23 09:36:23;;;;;;;6.10;3.43;;;36.30;49.30;;;;;;4989862;28;20816;-77
2022/06/23 09:39:16;;;;;;;5.20;3.07;;;38.00;48.80;;;;;;4988780;28;20926;-76
2022/06/23 09:41:54;;;;;;;8.30;3.50;;;39.20;46.10;;;;;;4994744;28;20480;-78
2022/06/23 09:44:42;;;;;;;7.40;4.07;;;40.00;43.60;;;;;;4989346;28;20449;-75
2022/06/23 09:47:29;;;;;;;6.00;3.43;;;38.90;45.10;;;;;;4986788;28;20473;-75
2022/06/23 09:50:12;;;;;;;5.50;3.20;;;40.30;43.50;;;;;;4988805;28;20468;-75
2022/06/23 09:52:43;;;;;;;6.63;3.40;;;40.50;42.30;;;;;;4989518;28;20461;-75
2022/06/23 09:55:15;;;;;;;7.87;3.77;;;39.90;43.00;;;;;;4981957;28;20776;-76
2022/06/23 09:58:06;;;;;;;4.87;3.60;;;40.20;43.20;;;;;;4986161;28;20990;-79
2022/06/23 10:00:46;;;;;;;7.57;3.87;;;41.00;41.70;;;;;;4983324;28;20477;-76
2022/06/23 10:03:37;;;;;;;7.47;3.33;;;41.00;40.30;;;;;;4983694;28;20446;-74
2022/06/23 10:06:19;;;;;;;5.60;3.40;;;41.40;40.30;;;;;;4987617;28;20474;-71
2022/06/23 10:09:15;;;;;;;6.83;3.50;;;42.20;39.20;;;;;;4981615;28;20453;-70
2022/06/23 10:12:15;;;;;;;7.27;3.53;;;41.90;39.70;;;;;;4985118;28;20492;-71
2022/06/23 10:14:58;;;;;;;5.80;3.30;;;42.30;39.40;;;;;;4985474;28;20509;-71
2022/06/23 10:17:43;;;;;;;7.20;3.20;;;42.00;38.20;;;;;;4984649;28;20450;-71
2022/06/23 10:20:47;;;;;;;6.07;3.37;;;41.40;38.70;;;;;;4982383;28;20463;-71
2022/06/23 10:23:28;;;;;;;4.67;3.20;;;41.60;39.30;;;;;;4968336;28;21176;-70
2022/06/23 10:26:22;;;;;;;6.17;3.47;;;41.20;39.30;;;;;;4989911;28;20519;-74
2022/06/23 10:29:23;;;;;;;5.53;3.30;;;40.90;39.90;;;;;;4977428;28;20517;-71
2022/06/23 10:32:16;;;;;;;4.23;3.30;;;40.20;40.20;;;;;;4989122;28;20467;-71
2022/06/23 10:34:56;;;;;;;5.20;3.30;;;40.50;40.70;;;;;;4986264;28;20537;-70
2022/06/23 10:37:49;;;;;;;5.17;3.53;;;41.40;39.80;;;;;;4987823;28;20427;-70
2022/06/23 10:41:08;;;;;;;5.10;3.07;;;41.70;39.50;;;;;;4978724;28;21039;-71
2022/06/23 10:43:51;;;;;;;6.70;2.93;;;42.40;39.10;;;;;;4890880;29;21002;-70
2022/06/23 10:46:23;;;;;;;6.00;2.73;;;41.50;38.70;;;;;;4988604;28;20454;-70
2022/06/23 10:49:04;;;;;;;5.87;3.30;;;41.30;39.30;;;;;;4976525;28;20443;-71
2022/06/23 10:51:44;;;;;;;4.27;3.40;;;41.10;39.20;;;;;;4989631;28;20953;-71
2022/06/23 10:54:39;;;;;;;4.20;3.27;;;40.70;39.80;;;;;;4982844;28;20458;-71
2022/06/23 10:57:47;;;;;;;6.93;3.23;;;39.70;40.30;;;;;;4981383;28;20493;-71
2022/06/23 11:00:18;;;;;;;5.80;3.40;;;40.30;40.60;;;;;;4987950;28;20842;-75
2022/06/23 11:03:22;;;;;;;7.33;3.33;;;39.90;41.40;;;;;;4982363;28;20451;-71
2022/06/23 11:06:32;;;;;;;6.77;2.97;;;41.40;37.20;;;;;;4956750;28;20605;-71
2022/06/23 11:09:17;;;;;;;5.43;3.30;;;40.70;37.40;;;;;;4951404;28;20435;-71
2022/06/23 11:12:01;;;;;;;7.27;2.80;;;40.20;37.20;;;;;;4968618;28;20478;-72
2022/06/23 11:15:04;;;;;;;6.00;2.63;;;40.10;37.10;;;;;;4986211;28;20434;-71
2022/06/23 11:18:05;;;;;;;5.10;2.80;;;40.50;36.80;;;;;;4921640;28;20454;-71
2022/06/23 11:20:48;;;;;;;4.63;2.63;;;40.50;36.60;;;;;;4988432;28;20462;-71
2022/06/23 11:23:26;;;;;;;6.27;3.23;;;40.90;36.80;;;;;;4989997;28;20697;-71
2022/06/23 11:26:00;;;;;;;5.27;2.30;;;40.40;36.50;;;;;;4991985;28;20517;-71
2022/06/23 11:28:39;;;;;;;5.97;2.20;;;39.70;36.80;;;;;;4983989;28;20538;-71
2022/06/23 11:31:17;;;;;;;3.97;3.27;;;40.00;36.70;;;;;;4979979;28;20966;-70
2022/06/23 11:34:12;;;;;;;3.40;2.40;;;39.90;36.90;;;;;;4980902;28;20505;-71
2022/06/23 11:37:05;;;;;;;4.70;2.60;;;39.10;37.90;;;;;;4991856;28;20429;-73
2022/06/23 11:39:50;;;;;;;5.33;2.70;;;39.40;38.30;;;;;;4990522;28;20892;-70
2022/06/23 11:42:27;;;;;;;6.90;2.70;;;38.70;39.00;;;;;;4988992;28;20975;-70
2022/06/23 11:45:28;;;;;;;7.07;2.93;;;38.40;40.00;;;;;;4991328;28;20967;-70
2022/06/23 11:48:15;;;;;;;4.70;2.37;;;38.50;39.30;;;;;;4988925;28;20439;-70
2022/06/23 11:50:56;;;;;;;5.43;3.30;;;37.60;41.40;;;;;;4988699;28;20458;-70
2022/06/23 11:53:33;;;;;;;5.90;2.57;;;36.50;42.00;;;;;;4991552;28;20446;-70
2022/06/23 11:56:06;;;;;;;3.97;2.93;;;35.90;42.50;;;;;;4990088;28;20928;-71
2022/06/23 11:58:40;;;;;;;5.63;3.00;;;35.40;43.60;;;;;;4985627;28;20457;-71
2022/06/23 12:01:18;;;;;;;7.53;2.70;;;34.80;45.30;;;;;;4991233;28;20461;-70
2022/06/23 12:03:56;;;;;;;7.70;4.30;;;34.10;45.20;;;;;;4985610;28;20872;-70
2022/06/23 12:06:41;;;;;;;9.30;3.40;;;33.60;46.40;;;;;;4990736;28;20884;-71
2022/06/23 12:09:07;;;;;;;9.10;3.50;;;33.10;47.60;;;;;;4990997;28;20492;-70
2022/06/23 12:11:34;;;;;;;6.50;3.00;;;32.90;48.40;;;;;;4988201;28;21163;-70
2022/06/23 12:14:02;;;;;;;7.70;3.10;;;32.70;49.50;;;;;;4985125;28;20221;-70
2022/06/23 12:16:29;;;;;;;6.43;3.70;;;32.80;49.80;;;;;;4990971;28;20465;-70
2022/06/23 12:19:03;;;;;;;7.03;3.53;;;32.40;50.40;;;;;;4988943;28;20478;-70
2022/06/23 12:21:40;;;;;;;6.83;3.60;;;32.20;52.00;;;;;;4991783;28;20462;-70
2022/06/23 12:24:33;;;;;;;7.23;3.77;;;32.20;52.50;;;;;;4990273;28;20805;-70
2022/06/23 12:27:25;;;;;;;8.17;5.07;;;32.20;52.30;;;;;;4990527;28;20439;-69
2022/06/23 12:30:12;;;;;;;6.40;3.47;;;32.20;52.90;;;;;;4982197;28;20531;-70
2022/06/23 12:32:54;;;;;;;4.87;2.87;;;32.00;53.10;;;;;;4987447;28;20436;-69
2022/06/23 12:35:38;;;;;;;5.40;2.80;;;32.00;52.90;;;;;;4985689;28;20450;-69
2022/06/23 12:38:11;;;;;;;8.37;2.73;;;31.80;53.30;;;;;;4982761;28;20477;-69
2022/06/23 12:40:55;;;;;;;9.00;3.27;;;31.50;53.50;;;;;;4987296;28;20484;-69
2022/06/23 12:43:58;;;;;;;4.73;2.50;;;31.40;53.60;;;;;;4991415;28;20492;-69
2022/06/23 12:46:45;;;;;;;5.47;2.97;;;31.20;54.20;;;;;;4989998;28;20434;-69
2022/06/23 12:49:27;;;;;;;6.83;3.40;;;31.10;54.30;;;;;;4987366;28;20458;-69
2022/06/23 12:52:23;;;;;;;5.20;2.70;;;31.00;54.00;;;;;;4990803;28;20951;-69
2022/06/23 12:55:24;;;;;;;4.50;2.60;;;30.90;54.60;;;;;;4988439;28;21147;-69
2022/06/23 12:58:18;;;;;;;5.67;2.80;;;30.90;55.70;;;;;;4979336;28;20441;-70
2022/06/23 13:01:16;;;;;;;5.07;2.90;;;30.70;54.50;;;;;;4988817;28;20897;-69
2022/06/23 13:03:54;;;;;;;5.40;2.73;;;30.60;53.30;;;;;;4979093;28;20443;-69
2022/06/23 13:06:23;;;;;;;4.50;2.40;;;30.60;51.70;;;;;;4988691;28;20444;-69
2022/06/23 13:08:58;;;;;;;3.03;2.50;;;30.60;52.00;;;;;;4989652;28;20538;-70
2022/06/23 13:11:38;;;;;;;7.93;3.00;;;30.60;52.50;;;;;;4985155;28;20508;-69
2022/06/23 13:14:15;;;;;;;8.20;3.20;;;30.60;53.60;;;;;;4984643;28;20477;-69
2022/06/23 13:17:03;;;;;;;2.87;2.10;;;30.60;51.30;;;;;;4989427;28;20449;-69
2022/06/23 13:19:34;;;;;;;8.10;2.30;;;30.60;50.90;;;;;;4974956;28;20445;-69
2022/06/23 13:22:08;;;;;;;7.67;4.03;;;30.70;51.20;;;;;;4989690;28;20477;-69
2022/06/23 13:24:40;;;;;;;7.13;3.40;;;30.70;52.50;;;;;;4975212;28;20502;-69
2022/06/23 13:27:22;;;;;;;5.33;3.00;;;30.60;54.10;;;;;;4984510;28;20501;-69
2022/06/23 13:30:00;;;;;;;5.07;2.80;;;30.80;54.20;;;;;;4989434;28;20438;-69
2022/06/23 13:32:34;;;;;;;5.80;3.00;;;31.00;54.70;;;;;;4986463;28;20438;-69
2022/06/23 13:35:02;;;;;;;3.40;2.57;;;31.10;55.00;;;;;;4982674;28;20465;-69
2022/06/23 13:37:34;;;;;;;5.67;2.73;;;31.10;54.00;;;;;;4989119;28;20441;-69
2022/06/23 13:40:02;;;;;;;5.60;2.67;;;31.00;53.60;;;;;;4989299;28;20904;-69
2022/06/23 13:42:28;;;;;;;11.27;2.90;;;31.20;51.10;;;;;;4981588;28;20466;-69
2022/06/23 13:45:23;;;;;;;6.43;3.17;;;31.00;51.80;;;;;;4974380;28;20944;-69
2022/06/23 13:48:02;;;;;;;5.60;3.03;;;30.90;53.80;;;;;;4984416;28;20187;-69
2022/06/23 13:50:46;;;;;;;4.30;2.80;;;30.70;53.70;;;;;;4988896;28;20502;-69
2022/06/23 13:53:22;;;;;;;4.57;2.57;;;30.60;55.00;;;;;;4988618;28;20473;-69
2022/06/23 13:55:51;;;;;;;5.83;2.63;;;30.70;55.10;;;;;;4983016;28;20454;-69
2022/06/23 13:58:28;;;;;;;5.23;3.10;;;30.70;54.70;;;;;;4985792;28;20442;-69
2022/06/23 14:01:03;;;;;;;4.63;3.10;;;30.70;54.90;;;;;;4980253;28;20524;-69